Terminal Aerodrome Forecast
Issued by NWS

Current Version | Previous Version | Text Only | Print | Product List | Glossary Off
Versions: 1 2 3 4 5 6 7 8 9 10 11 12 13 14 15 16 17 18 19 20 21 22 23 24 25

559
FTUS44 KOHX 231431 AAF
TAFCKV
TAF AMD
KCKV 231431Z 2315/2412 11009KT 5SM -SHRA SCT010 BKN025 OVC080
      TEMPO 2315/2317 2SM -SHRA BKN010 OVC025
     FM231800 18008KT 4SM SHRA OVC025
     FM232200 19003KT P6SM VCSH SCT040 BKN080
     FM240600 31003KT 3SM BR VCSH OVC009=

USA.gov is the U.S. government's official web portal to all federal, state and local government web resources and services.